createdAt,value
2022-11-09T00:01:07.080Z,2.10
2022-11-09T00:04:30.530Z,2.30
2022-11-09T00:07:54.004Z,2.50
2022-11-09T00:11:18.639Z,2.23
2022-11-09T00:14:42.594Z,2.60
2022-11-09T00:18:07.657Z,2.13
2022-11-09T00:21:31.133Z,2.37
2022-11-09T00:24:54.615Z,2.07
2022-11-09T00:28:18.116Z,2.10
2022-11-09T00:31:42.001Z,1.80
2022-11-09T00:35:08.124Z,1.80
2022-11-09T00:38:31.852Z,1.60
2022-11-09T00:41:55.545Z,1.60
2022-11-09T00:45:19.174Z,2.00
2022-11-09T00:48:42.915Z,2.30
2022-11-09T00:52:07.922Z,2.00
2022-11-09T00:55:31.435Z,2.13
2022-11-09T00:58:56.467Z,1.97
2022-11-09T01:02:20.129Z,2.33
2022-11-09T01:05:44.259Z,1.73
2022-11-09T01:09:09.338Z,2.07
2022-11-09T01:12:34.395Z,2.27
2022-11-09T01:15:57.861Z,2.00
2022-11-09T01:19:21.384Z,2.00
2022-11-09T01:22:45.080Z,2.10
2022-11-09T01:26:13.142Z,1.70
2022-11-09T01:29:36.768Z,2.50
2022-11-09T01:33:00.239Z,2.10
2022-11-09T01:36:25.777Z,1.87
2022-11-09T01:39:49.268Z,1.83
2022-11-09T01:43:21.130Z,1.93
2022-11-09T01:46:52.679Z,1.80
2022-11-09T01:50:25.067Z,1.83
2022-11-09T01:53:54.087Z,2.20
2022-11-09T01:57:28.769Z,2.00
2022-11-09T02:00:55.163Z,2.00
2022-11-09T02:04:26.124Z,1.73
2022-11-09T02:07:51.422Z,1.60
2022-11-09T02:11:21.555Z,2.37
2022-11-09T02:14:48.882Z,1.90
2022-11-09T02:18:14.123Z,2.00
2022-11-09T02:21:39.372Z,2.10
2022-11-09T02:25:03.760Z,1.80
2022-11-09T02:28:28.974Z,2.23
2022-11-09T02:31:59.762Z,2.00
2022-11-09T02:35:24.222Z,2.10
2022-11-09T02:38:50.918Z,1.90
2022-11-09T02:42:21.394Z,1.77
2022-11-09T02:45:47.702Z,2.03
2022-11-09T02:49:11.792Z,2.20
2022-11-09T02:52:35.349Z,2.07
2022-11-09T02:56:00.387Z,1.93
2022-11-09T02:59:24.575Z,2.10
2022-11-09T03:02:49.134Z,2.37
2022-11-09T03:06:12.628Z,2.57
2022-11-09T03:09:37.330Z,2.43
2022-11-09T03:13:02.144Z,2.13
2022-11-09T03:16:26.465Z,2.00
2022-11-09T03:19:50.007Z,1.97
2022-11-09T03:23:14.501Z,2.10
2022-11-09T03:26:38.064Z,1.70
2022-11-09T03:30:03.429Z,2.13
2022-11-09T03:33:27.606Z,1.70
2022-11-09T03:36:51.191Z,1.40
2022-11-09T03:40:15.402Z,1.20
2022-11-09T03:43:39.932Z,1.50
2022-11-09T03:47:04.952Z,1.40
2022-11-09T03:50:29.633Z,1.60
2022-11-09T03:53:53.245Z,1.53
2022-11-09T03:57:16.766Z,1.40
2022-11-09T04:00:40.493Z,1.40
2022-11-09T04:04:05.891Z,2.00
2022-11-09T04:07:29.443Z,1.97
2022-11-09T04:10:53.278Z,1.80
2022-11-09T04:14:16.717Z,1.47
2022-11-09T04:17:40.807Z,1.50
2022-11-09T04:21:05.734Z,1.40
2022-11-09T04:24:29.297Z,1.90
2022-11-09T04:27:56.668Z,1.80
2022-11-09T04:31:24.188Z,1.57
2022-11-09T04:34:50.430Z,1.70
2022-11-09T04:38:15.929Z,1.50
2022-11-09T04:41:39.558Z,1.30
2022-11-09T04:45:03.286Z,1.50
2022-11-09T04:48:27.238Z,1.40
2022-11-09T04:51:51.112Z,1.43
2022-11-09T04:55:16.194Z,1.70
2022-11-09T04:58:40.157Z,2.00
2022-11-09T05:02:04.542Z,2.00
2022-11-09T05:05:28.552Z,1.90
2022-11-09T05:08:52.514Z,1.53
2022-11-09T05:12:17.542Z,1.40
2022-11-09T05:15:42.093Z,1.50
2022-11-09T05:19:05.873Z,1.57
2022-11-09T05:22:47.262Z,1.67
2022-11-09T05:26:10.829Z,1.77
2022-11-09T05:29:37.087Z,1.70
2022-11-09T05:33:00.735Z,1.80
2022-11-09T05:36:24.615Z,1.60
2022-11-09T05:39:48.190Z,3.10
2022-11-09T05:43:11.637Z,4.43
2022-11-09T05:46:36.546Z,3.60
2022-11-09T05:50:11.421Z,2.69
2022-11-09T05:53:34.944Z,2.63
2022-11-09T05:56:58.376Z,1.90
2022-11-09T06:00:22.795Z,2.20
2022-11-09T06:03:48.618Z,1.83
2022-11-09T06:07:12.211Z,2.00
2022-11-09T06:10:36.198Z,1.80
2022-11-09T06:13:59.683Z,1.77
2022-11-09T06:17:23.430Z,1.70
2022-11-09T06:20:48.266Z,1.97
2022-11-09T06:24:11.927Z,2.60
2022-11-09T06:27:35.403Z,1.90
2022-11-09T06:31:00.333Z,2.60
2022-11-09T06:34:23.884Z,2.23
2022-11-09T06:37:48.754Z,2.00
2022-11-09T06:41:12.681Z,1.90
2022-11-09T06:44:36.243Z,2.50
2022-11-09T06:48:02.666Z,1.90
2022-11-09T06:51:26.561Z,2.13
2022-11-09T06:54:51.492Z,1.80
2022-11-09T06:58:17.028Z,1.60
2022-11-09T07:01:40.796Z,2.00
2022-11-09T07:05:04.775Z,2.20
2022-11-09T07:08:28.258Z,1.97
2022-11-09T07:11:53.061Z,2.03
2022-11-09T07:15:17.552Z,2.00
2022-11-09T07:18:41.083Z,1.83
2022-11-09T07:22:04.559Z,2.60
2022-11-09T07:25:28.063Z,3.90
2022-11-09T07:28:53.125Z,3.93
2022-11-09T07:32:16.566Z,2.93
2022-11-09T07:35:40.086Z,2.17
2022-11-09T07:39:04.366Z,1.80
2022-11-09T07:42:28.183Z,1.93
2022-11-09T07:45:53.006Z,1.80
2022-11-09T07:49:17.630Z,1.13
2022-11-09T07:52:41.104Z,1.67
2022-11-09T07:56:06.443Z,1.40
2022-11-09T07:59:31.451Z,1.50
2022-11-09T08:02:56.477Z,1.77
2022-11-09T08:06:20.017Z,1.57
2022-11-09T08:09:43.488Z,1.80
2022-11-09T08:13:11.322Z,1.63
2022-11-09T08:16:37.693Z,1.70
2022-11-09T08:20:03.055Z,1.90
2022-11-09T08:23:26.472Z,1.70
2022-11-09T08:26:49.873Z,1.40
2022-11-09T08:30:17.375Z,1.53
2022-11-09T08:33:42.711Z,1.70
2022-11-09T08:37:07.559Z,1.70
2022-11-09T08:40:33.432Z,1.70
2022-11-09T08:43:56.927Z,1.53
2022-11-09T08:47:20.434Z,1.47
2022-11-09T08:50:43.902Z,1.30
2022-11-09T08:54:11.195Z,1.50
2022-11-09T08:57:35.099Z,1.10
2022-11-09T09:00:58.664Z,0.93
2022-11-09T09:04:22.130Z,1.00
2022-11-09T09:07:45.706Z,0.83
2022-11-09T09:11:10.562Z,1.10
2022-11-09T09:14:34.782Z,1.00
2022-11-09T09:18:01.591Z,0.90
2022-11-09T09:21:25.198Z,1.10
2022-11-09T09:24:48.930Z,0.97
2022-11-09T09:28:13.815Z,1.20
2022-11-09T09:31:37.292Z,1.50
2022-11-09T09:35:00.850Z,1.30
2022-11-09T09:38:24.606Z,1.50
2022-11-09T09:41:53.547Z,1.60
2022-11-09T09:45:24.773Z,1.50
2022-11-09T09:48:55.287Z,1.67
2022-11-09T09:52:27.802Z,1.57
2022-11-09T09:55:58.281Z,1.60
2022-11-09T09:59:33.026Z,1.80
2022-11-09T10:02:57.875Z,1.40
2022-11-09T10:06:47.386Z,1.60
2022-11-09T10:10:29.894Z,1.60
2022-11-09T10:14:15.558Z,1.60
2022-11-09T10:17:52.394Z,2.07
2022-11-09T10:21:40.602Z,1.53
2022-11-09T10:25:37.433Z,1.60
2022-11-09T10:29:19.493Z,1.30
2022-11-09T10:32:46.712Z,1.30
2022-11-09T10:36:22.135Z,1.30
2022-11-09T10:39:57.037Z,1.40
2022-11-09T10:43:38.922Z,1.43
2022-11-09T10:47:22.545Z,1.60
2022-11-09T10:51:05.303Z,1.50
2022-11-09T10:54:48.907Z,1.40
2022-11-09T10:58:35.865Z,1.17
2022-11-09T11:02:45.426Z,1.50
2022-11-09T11:06:31.508Z,1.27
2022-11-09T11:10:21.681Z,1.83
2022-11-09T11:14:22.879Z,1.50
2022-11-09T11:18:16.257Z,2.30
2022-11-09T11:22:22.989Z,2.27
2022-11-09T11:26:28.959Z,2.27
2022-11-09T11:30:16.931Z,1.97
2022-11-09T11:34:00.274Z,1.77
2022-11-09T11:37:57.728Z,1.60
2022-11-09T11:42:02.456Z,1.60
2022-11-09T11:45:52.844Z,1.57
2022-11-09T11:50:02.612Z,1.67
2022-11-09T11:54:15.047Z,1.63
2022-11-09T11:58:23.989Z,2.00
2022-11-09T12:02:50.983Z,1.80
2022-11-09T12:07:03.518Z,1.23
2022-11-09T12:11:01.107Z,1.23
2022-11-09T12:15:04.869Z,1.10
2022-11-09T12:19:02.526Z,1.20
2022-11-09T12:23:02.223Z,1.00
2022-11-09T12:27:31.158Z,1.00
2022-11-09T12:31:27.577Z,0.90
2022-11-09T12:35:25.541Z,1.00
2022-11-09T12:39:18.932Z,0.97
2022-11-09T12:43:15.507Z,1.00
2022-11-09T12:47:05.884Z,0.80
2022-11-09T12:50:48.533Z,1.10
2022-11-09T12:54:31.402Z,1.00
2022-11-09T12:58:25.436Z,1.00
2022-11-09T13:02:30.177Z,1.03
2022-11-09T13:06:20.467Z,1.00
2022-11-09T13:10:05.045Z,1.00
2022-11-09T13:13:47.999Z,1.07
2022-11-09T13:18:07.188Z,0.73
2022-11-09T13:21:49.277Z,0.90
2022-11-09T13:25:52.852Z,1.00
2022-11-09T13:29:55.286Z,1.10
2022-11-09T13:33:42.829Z,0.90
2022-11-09T13:37:58.115Z,1.00
2022-11-09T13:41:45.046Z,0.90
2022-11-09T13:45:36.583Z,0.90
2022-11-09T13:49:49.091Z,1.00
2022-11-09T13:53:49.341Z,0.93
2022-11-09T13:57:33.515Z,1.20
2022-11-09T14:01:34.215Z,1.30
2022-11-09T14:05:32.863Z,0.90
2022-11-09T14:09:21.251Z,1.00
2022-11-09T14:13:48.392Z,1.07
2022-11-09T14:17:41.697Z,0.97
2022-11-09T14:21:44.609Z,1.00
2022-11-09T14:25:27.880Z,1.43
2022-11-09T14:29:21.963Z,1.23
2022-11-09T14:33:03.811Z,1.13
2022-11-09T14:36:47.462Z,1.03
2022-11-09T14:40:32.560Z,1.10
2022-11-09T14:44:24.869Z,1.00
2022-11-09T14:48:07.379Z,1.43
2022-11-09T14:51:51.567Z,1.00
2022-11-09T14:55:37.104Z,0.90
2022-11-09T14:59:27.281Z,0.90
2022-11-09T15:03:28.295Z,1.00
2022-11-09T15:07:22.816Z,1.10
2022-11-09T15:11:05.091Z,1.00
2022-11-09T15:14:51.880Z,1.17
2022-11-09T15:18:42.456Z,0.90
2022-11-09T15:22:55.478Z,1.03
2022-11-09T15:26:43.152Z,0.90
2022-11-09T15:30:32.485Z,1.00
2022-11-09T15:34:24.270Z,0.90
2022-11-09T15:38:38.052Z,0.90
2022-11-09T15:42:21.312Z,0.90
2022-11-09T15:46:04.556Z,1.00
2022-11-09T15:49:46.792Z,0.80
2022-11-09T15:53:30.436Z,1.17
2022-11-09T15:57:19.317Z,0.90
2022-11-09T16:01:01.181Z,1.10
2022-11-09T16:04:43.323Z,1.00
2022-11-09T16:08:25.455Z,1.00
2022-11-09T16:12:09.705Z,1.03
2022-11-09T16:15:51.758Z,1.20
2022-11-09T16:19:34.195Z,0.90
2022-11-09T16:23:15.970Z,1.20
2022-11-09T16:27:00.335Z,1.00
2022-11-09T16:30:46.690Z,1.03
2022-11-09T16:34:29.431Z,1.10
2022-11-09T16:38:12.368Z,1.10
2022-11-09T16:41:55.087Z,1.10
2022-11-09T16:45:37.761Z,1.20
2022-11-09T16:49:21.211Z,0.90
2022-11-09T16:53:03.366Z,0.87
2022-11-09T16:56:47.950Z,1.03
2022-11-09T17:00:42.763Z,1.00
2022-11-09T17:04:33.414Z,1.23
2022-11-09T17:08:15.790Z,1.10
2022-11-09T17:11:58.104Z,0.80
2022-11-09T17:15:45.230Z,0.80
2022-11-09T17:19:33.731Z,0.97
2022-11-09T17:23:19.055Z,0.90
2022-11-09T17:27:00.985Z,1.03
2022-11-09T17:30:43.173Z,1.00
2022-11-09T17:34:25.506Z,1.00
2022-11-09T17:38:09.135Z,0.80
2022-11-09T17:41:51.455Z,1.00
2022-11-09T17:45:36.063Z,0.90
2022-11-09T17:49:18.260Z,1.27
2022-11-09T17:53:00.495Z,1.10
2022-11-09T17:56:44.095Z,1.13
2022-11-09T18:00:26.453Z,1.20
2022-11-09T18:04:10.589Z,1.30
2022-11-09T18:07:52.898Z,1.20
2022-11-09T18:11:35.021Z,1.10
2022-11-09T18:15:19.008Z,1.00
2022-11-09T18:19:02.630Z,1.07
2022-11-09T18:22:44.892Z,0.90
2022-11-09T18:26:27.207Z,1.10
2022-11-09T18:30:12.102Z,1.10
2022-11-09T18:33:55.778Z,0.87
2022-11-09T18:37:38.421Z,0.90
2022-11-09T18:41:23.810Z,1.00
2022-11-09T18:45:07.482Z,1.17
2022-11-09T18:48:53.052Z,0.97
2022-11-09T18:52:37.084Z,0.80
2022-11-09T18:56:22.693Z,1.00
2022-11-09T19:00:05.814Z,0.90
2022-11-09T19:03:48.487Z,1.07
2022-11-09T19:07:30.389Z,1.03
2022-11-09T19:11:15.187Z,0.87
2022-11-09T19:14:57.275Z,1.17
2022-11-09T19:18:40.009Z,1.27
2022-11-09T19:22:22.132Z,1.40
2022-11-09T19:26:04.267Z,1.30
2022-11-09T19:29:47.879Z,1.33
2022-11-09T19:33:29.967Z,1.20
2022-11-09T19:37:12.282Z,1.20
2022-11-09T19:40:55.996Z,1.30
2022-11-09T19:44:38.085Z,2.00
2022-11-09T19:48:21.784Z,2.97
2022-11-09T19:52:03.859Z,3.53
2022-11-09T19:55:46.316Z,3.43
2022-11-09T19:59:28.200Z,3.33
2022-11-09T20:03:10.341Z,2.73
2022-11-09T20:06:53.739Z,2.47
2022-11-09T20:10:37.726Z,1.90
2022-11-09T20:14:21.103Z,2.93
2022-11-09T20:18:03.108Z,2.20
2022-11-09T20:21:45.535Z,2.50
2022-11-09T20:25:28.702Z,1.80
2022-11-09T20:29:10.994Z,1.90
2022-11-09T20:32:52.883Z,1.50
2022-11-09T20:36:35.741Z,1.53
2022-11-09T20:40:17.901Z,1.83
2022-11-09T20:44:01.406Z,1.70
2022-11-09T20:48:05.065Z,2.10
2022-11-09T20:51:45.444Z,1.50
2022-11-09T20:55:27.529Z,1.30
2022-11-09T20:59:11.144Z,1.07
2022-11-09T21:02:53.359Z,1.10
2022-11-09T21:06:35.571Z,1.00
2022-11-09T21:10:18.712Z,1.00
2022-11-09T21:14:01.643Z,1.20
2022-11-09T21:17:45.223Z,0.93
2022-11-09T21:21:28.743Z,1.00
2022-11-09T21:25:31.865Z,0.93
2022-11-09T21:29:34.347Z,1.37
2022-11-09T21:33:18.036Z,1.57
2022-11-09T21:36:59.961Z,1.97
2022-11-09T21:40:42.217Z,1.50
2022-11-09T21:44:24.576Z,1.10
2022-11-09T21:48:08.226Z,1.03
2022-11-09T21:51:52.105Z,1.07
2022-11-09T21:55:34.088Z,1.20
2022-11-09T21:59:16.142Z,0.90
2022-11-09T22:02:57.983Z,0.90
2022-11-09T22:06:43.280Z,0.90
2022-11-09T22:10:26.840Z,0.80
2022-11-09T22:14:31.498Z,0.90
2022-11-09T22:18:33.675Z,1.10
2022-11-09T22:22:15.838Z,1.00
2022-11-09T22:26:02.188Z,0.80
2022-11-09T22:29:44.341Z,1.20
2022-11-09T22:33:27.667Z,0.90
2022-11-09T22:37:09.978Z,0.90
2022-11-09T22:40:52.290Z,0.90
2022-11-09T22:44:35.655Z,1.13
2022-11-09T22:48:17.911Z,1.00
2022-11-09T22:51:59.993Z,0.93
2022-11-09T22:55:42.280Z,1.10
2022-11-09T22:59:25.024Z,1.17
2022-11-09T23:03:08.554Z,0.90
2022-11-09T23:06:50.765Z,1.17
2022-11-09T23:10:33.033Z,0.83
2022-11-09T23:14:15.134Z,1.00
2022-11-09T23:18:17.614Z,0.80
2022-11-09T23:22:01.688Z,0.90
2022-11-09T23:25:56.579Z,1.00
2022-11-09T23:29:38.580Z,1.00
2022-11-09T23:33:21.096Z,1.00
2022-11-09T23:37:04.770Z,0.80
2022-11-09T23:40:46.763Z,0.70
2022-11-09T23:44:28.856Z,0.90
2022-11-09T23:48:16.241Z,0.73
2022-11-09T23:51:58.337Z,0.77
2022-11-09T23:55:42.200Z,1.10
2022-11-09T23:59:24.355Z,0.90
